createdAt,value
2018-02-17T00:00:02.161Z,11.37
2018-02-17T00:02:30.018Z,13.13
2018-02-17T00:04:57.843Z,14.40
2018-02-17T00:07:25.696Z,11.17
2018-02-17T00:09:53.524Z,14.53
2018-02-17T00:12:21.451Z,12.50
2018-02-17T00:14:49.334Z,16.77
2018-02-17T00:17:17.186Z,16.20
2018-02-17T00:19:45.002Z,14.53
2018-02-17T00:22:12.914Z,19.60
2018-02-17T00:24:40.844Z,13.00
2018-02-17T00:27:08.750Z,16.27
2018-02-17T00:29:36.576Z,20.63
2018-02-17T00:32:04.444Z,16.87
2018-02-17T00:34:32.243Z,12.20
2018-02-17T00:37:00.010Z,18.10
2018-02-17T00:39:27.871Z,15.33
2018-02-17T00:41:55.677Z,17.03
2018-02-17T00:44:23.551Z,25.07
2018-02-17T00:46:51.367Z,14.97
2018-02-17T00:49:19.246Z,13.30
2018-02-17T00:51:47.102Z,16.03
2018-02-17T00:54:14.981Z,17.90
2018-02-17T00:56:42.794Z,25.67
2018-02-17T00:59:10.632Z,14.17
2018-02-17T01:01:38.428Z,23.90
2018-02-17T01:04:06.281Z,20.67
2018-02-17T01:06:34.087Z,14.23
2018-02-17T01:09:02.000Z,13.20
2018-02-17T01:11:29.793Z,15.97
2018-02-17T01:13:57.636Z,12.40
2018-02-17T01:16:25.441Z,16.20
2018-02-17T01:18:53.303Z,13.40
2018-02-17T01:21:21.103Z,14.43
2018-02-17T01:23:48.966Z,18.20
2018-02-17T01:26:16.815Z,17.53
2018-02-17T01:28:44.709Z,18.00
2018-02-17T01:31:12.551Z,14.40
2018-02-17T01:33:40.420Z,16.77
2018-02-17T01:36:08.217Z,17.07
2018-02-17T01:38:36.108Z,12.87
2018-02-17T01:41:03.952Z,17.30
2018-02-17T01:43:31.813Z,25.53
2018-02-17T01:45:59.661Z,17.40
2018-02-17T01:48:27.521Z,18.17
2018-02-17T01:50:55.387Z,13.63
2018-02-17T01:53:23.278Z,16.43
2018-02-17T01:55:51.145Z,16.50
2018-02-17T01:58:19.116Z,18.07
2018-02-17T02:00:46.903Z,27.87
2018-02-17T02:03:14.742Z,12.70
2018-02-17T02:05:42.526Z,15.73
2018-02-17T02:08:10.360Z,15.43
2018-02-17T02:10:38.168Z,19.30
2018-02-17T02:13:06.040Z,13.90
2018-02-17T02:15:33.849Z,19.13
2018-02-17T02:18:01.746Z,18.83
2018-02-17T02:20:29.556Z,20.73
2018-02-17T02:22:57.374Z,17.87
2018-02-17T02:25:25.216Z,15.00
2018-02-17T02:27:53.007Z,10.80
2018-02-17T02:30:20.910Z,18.80
2018-02-17T02:32:48.718Z,13.10
2018-02-17T02:35:16.554Z,29.80
2018-02-17T02:37:44.396Z,15.40
2018-02-17T02:40:12.255Z,14.03
2018-02-17T02:42:40.052Z,14.97
2018-02-17T02:45:07.921Z,11.00
2018-02-17T02:47:35.745Z,16.47
2018-02-17T02:50:03.652Z,20.30
2018-02-17T02:52:31.456Z,16.30
2018-02-17T02:54:59.312Z,12.83
2018-02-17T02:57:27.106Z,17.67
2018-02-17T02:59:54.949Z,14.30
2018-02-17T03:02:22.744Z,15.20
2018-02-17T03:04:50.609Z,22.17
2018-02-17T03:07:18.411Z,17.83
2018-02-17T03:09:46.203Z,14.83
2018-02-17T03:12:14.003Z,16.80
2018-02-17T03:14:41.864Z,19.27
2018-02-17T03:17:09.671Z,15.83
2018-02-17T03:19:37.524Z,13.87
2018-02-17T03:22:05.386Z,13.53
2018-02-17T03:24:33.289Z,18.90
2018-02-17T03:27:01.125Z,15.10
2018-02-17T03:29:28.955Z,15.93
2018-02-17T03:31:56.781Z,14.07
2018-02-17T03:34:24.575Z,13.17
2018-02-17T03:36:52.393Z,15.00
2018-02-17T03:39:20.265Z,13.80
2018-02-17T03:41:48.077Z,20.53
2018-02-17T03:44:15.934Z,14.13
2018-02-17T03:46:43.743Z,18.70
2018-02-17T03:49:11.633Z,17.67
2018-02-17T03:51:39.450Z,10.37
2018-02-17T03:54:07.303Z,18.77
2018-02-17T03:56:35.107Z,18.70
2018-02-17T03:59:02.962Z,19.37
2018-02-17T04:01:30.752Z,18.30
2018-02-17T04:03:58.566Z,16.40
2018-02-17T04:06:26.419Z,25.10
2018-02-17T04:08:54.202Z,15.77
2018-02-17T04:11:22.048Z,17.73
2018-02-17T04:13:49.844Z,25.03
2018-02-17T04:16:17.688Z,19.03
2018-02-17T04:18:45.482Z,18.50
2018-02-17T04:21:13.372Z,17.67
2018-02-17T04:23:41.217Z,15.73
2018-02-17T04:26:09.052Z,17.73
2018-02-17T04:28:36.848Z,14.17
2018-02-17T04:31:04.720Z,21.60
2018-02-17T04:33:32.515Z,17.30
2018-02-17T04:36:00.354Z,12.83
2018-02-17T04:38:28.195Z,15.60
2018-02-17T04:41:00.536Z,21.83
2018-02-17T04:43:32.817Z,19.13
2018-02-17T04:46:16.448Z,12.80
2018-02-17T04:48:55.117Z,18.10
2018-02-17T04:51:23.072Z,17.13
2018-02-17T04:54:05.755Z,22.90
2018-02-17T04:56:39.250Z,16.93
2018-02-17T04:59:12.561Z,20.67
2018-02-17T05:01:45.888Z,18.90
2018-02-17T05:04:28.570Z,19.53
2018-02-17T05:07:00.770Z,18.30
2018-02-17T05:09:28.672Z,21.47
2018-02-17T05:11:56.583Z,17.80
2018-02-17T05:14:24.912Z,28.23
2018-02-17T05:16:59.402Z,27.93
2018-02-17T05:19:33.295Z,17.17
2018-02-17T05:22:01.203Z,15.93
2018-02-17T05:24:30.515Z,18.07
2018-02-17T05:26:59.243Z,16.33
2018-02-17T05:29:38.813Z,21.57
2018-02-17T05:32:10.685Z,16.40
2018-02-17T05:34:38.542Z,21.33
2018-02-17T05:37:06.442Z,20.67
2018-02-17T05:39:36.099Z,19.17
2018-02-17T05:42:08.874Z,20.93
2018-02-17T05:44:52.367Z,15.87
2018-02-17T05:47:25.920Z,17.50
2018-02-17T05:49:53.822Z,23.00
2018-02-17T05:52:21.659Z,25.70
2018-02-17T05:54:49.445Z,18.93
2018-02-17T05:57:17.319Z,26.47
2018-02-17T05:59:45.126Z,22.53
2018-02-17T06:02:12.993Z,20.30
2018-02-17T06:04:40.845Z,26.23
2018-02-17T06:07:08.749Z,28.33
2018-02-17T06:09:36.561Z,28.13
2018-02-17T06:12:04.500Z,20.17
2018-02-17T06:14:32.368Z,16.90
2018-02-17T06:17:00.317Z,20.30
2018-02-17T06:19:28.163Z,21.90
2018-02-17T06:21:55.964Z,22.90
2018-02-17T06:24:23.790Z,26.07
2018-02-17T06:26:51.697Z,24.93
2018-02-17T06:29:19.491Z,23.77
2018-02-17T06:31:47.349Z,24.40
2018-02-17T06:34:15.210Z,25.60
2018-02-17T06:36:43.059Z,26.03
2018-02-17T06:39:10.882Z,28.50
2018-02-17T06:41:38.755Z,25.37
2018-02-17T06:44:06.552Z,20.30
2018-02-17T06:46:34.430Z,29.23
2018-02-17T06:49:02.241Z,28.80
2018-02-17T06:51:30.167Z,23.33
2018-02-17T06:53:58.037Z,26.83
2018-02-17T06:56:25.958Z,25.40
2018-02-17T06:58:53.772Z,17.40
2018-02-17T07:01:21.690Z,26.60
2018-02-17T07:03:49.500Z,23.50
2018-02-17T07:06:17.400Z,31.10
2018-02-17T07:08:45.241Z,24.60
2018-02-17T07:11:13.105Z,27.20
2018-02-17T07:13:40.901Z,23.07
2018-02-17T07:16:08.800Z,27.63
2018-02-17T07:18:36.612Z,22.73
2018-02-17T07:21:04.460Z,20.80
2018-02-17T07:23:32.270Z,19.07
2018-02-17T07:26:00.156Z,23.17
2018-02-17T07:28:28.044Z,21.37
2018-02-17T07:30:55.872Z,19.60
2018-02-17T07:33:23.767Z,21.53
2018-02-17T07:35:51.616Z,21.23
2018-02-17T07:38:19.528Z,21.73
2018-02-17T07:40:47.327Z,22.63
2018-02-17T07:43:15.196Z,25.70
2018-02-17T07:45:43.029Z,30.07
2018-02-17T07:48:10.967Z,24.00
2018-02-17T07:50:38.815Z,23.50
2018-02-17T07:53:06.672Z,28.10
2018-02-17T07:55:34.547Z,26.13
2018-02-17T07:58:02.424Z,23.77
2018-02-17T08:00:30.269Z,23.33
2018-02-17T08:02:58.201Z,27.03
2018-02-17T08:05:26.063Z,24.17
2018-02-17T08:07:53.974Z,25.73
2018-02-17T08:10:21.879Z,24.23
2018-02-17T08:12:49.764Z,30.33
2018-02-17T08:15:17.603Z,25.47
2018-02-17T08:17:45.529Z,25.33
2018-02-17T08:20:13.405Z,24.87
2018-02-17T08:22:41.297Z,30.17
2018-02-17T08:25:09.181Z,23.67
2018-02-17T08:27:37.096Z,26.43
2018-02-17T08:30:04.951Z,24.83
2018-02-17T08:32:32.989Z,25.00
2018-02-17T08:35:00.860Z,26.43
2018-02-17T08:37:28.767Z,23.20
2018-02-17T08:39:56.626Z,22.40
2018-02-17T08:42:24.502Z,25.77
2018-02-17T08:44:52.352Z,26.37
2018-02-17T08:47:20.246Z,25.57
2018-02-17T08:49:48.115Z,26.40
2018-02-17T08:52:16.029Z,22.93
2018-02-17T08:54:43.883Z,28.97
2018-02-17T08:57:11.807Z,27.90
2018-02-17T08:59:39.716Z,27.43
2018-02-17T09:02:07.640Z,30.90
2018-02-17T09:04:35.489Z,31.57
2018-02-17T09:07:03.419Z,27.90
2018-02-17T09:09:31.207Z,24.07
2018-02-17T09:11:59.136Z,23.20
2018-02-17T09:14:26.984Z,24.97
2018-02-17T09:16:54.855Z,25.77
2018-02-17T09:19:22.770Z,25.00
2018-02-17T09:21:50.649Z,27.83
2018-02-17T09:24:18.650Z,25.13
2018-02-17T09:26:46.537Z,27.27
2018-02-17T09:29:14.456Z,33.33
2018-02-17T09:31:42.293Z,25.87
2018-02-17T09:34:10.209Z,30.80
2018-02-17T09:36:38.024Z,34.50
2018-02-17T09:39:05.989Z,25.80
2018-02-17T09:41:33.849Z,28.13
2018-02-17T09:44:02.672Z,24.17
2018-02-17T09:46:30.521Z,25.43
2018-02-17T09:48:58.385Z,28.60
2018-02-17T09:51:26.346Z,29.77
2018-02-17T09:53:54.259Z,23.97
2018-02-17T09:56:22.124Z,32.50
2018-02-17T09:58:50.025Z,25.63
2018-02-17T10:01:17.905Z,33.33
2018-02-17T10:03:45.837Z,30.83
2018-02-17T10:06:13.678Z,25.13
2018-02-17T10:08:41.573Z,28.70
2018-02-17T10:11:09.464Z,21.60
2018-02-17T10:13:37.376Z,30.10
2018-02-17T10:16:05.180Z,31.77
2018-02-17T10:18:33.058Z,26.50
2018-02-17T10:21:00.891Z,30.47
2018-02-17T10:23:28.808Z,36.03
2018-02-17T10:25:56.723Z,30.43
2018-02-17T10:28:24.624Z,29.60
2018-02-17T10:30:52.461Z,33.30
2018-02-17T10:33:20.376Z,32.87
2018-02-17T10:35:48.198Z,35.90
2018-02-17T10:38:16.113Z,29.97
2018-02-17T10:40:43.932Z,29.77
2018-02-17T10:43:11.832Z,29.30
2018-02-17T10:45:39.697Z,29.53
2018-02-17T10:48:07.584Z,31.53
2018-02-17T10:50:35.473Z,24.47
2018-02-17T10:53:03.317Z,31.53
2018-02-17T10:55:36.550Z,28.73
2018-02-17T10:58:04.451Z,30.20
2018-02-17T11:00:32.351Z,30.03
2018-02-17T11:03:00.305Z,25.47
2018-02-17T11:05:28.156Z,25.53
2018-02-17T11:07:55.982Z,21.47
2018-02-17T11:10:23.885Z,18.33
2018-02-17T11:12:51.771Z,20.33
2018-02-17T11:15:19.676Z,17.37
2018-02-17T11:17:48.518Z,22.57
2018-02-17T11:20:16.456Z,21.47
2018-02-17T11:22:44.273Z,18.40
2018-02-17T11:25:12.171Z,23.77
2018-02-17T11:27:40.052Z,20.13
2018-02-17T11:30:07.955Z,14.60
2018-02-17T11:32:35.829Z,11.93
2018-02-17T11:35:03.721Z,12.60
2018-02-17T11:37:31.600Z,13.47
2018-02-17T11:39:59.504Z,9.57
2018-02-17T11:42:27.368Z,11.30
2018-02-17T11:44:55.236Z,13.23
2018-02-17T11:47:23.110Z,7.73
2018-02-17T11:49:51.080Z,12.23
2018-02-17T11:52:18.884Z,11.20
2018-02-17T11:54:46.738Z,13.23
2018-02-17T11:57:14.612Z,17.90
2018-02-17T11:59:42.525Z,14.50
2018-02-17T12:02:10.403Z,11.13
2018-02-17T12:04:38.274Z,8.50
2018-02-17T12:07:06.157Z,10.40
2018-02-17T12:09:34.028Z,5.10
2018-02-17T12:12:01.904Z,13.23
2018-02-17T12:14:29.788Z,5.17
2018-02-17T12:16:57.681Z,5.00
2018-02-17T12:19:25.565Z,5.70
2018-02-17T12:21:53.417Z,5.90
2018-02-17T12:24:21.284Z,11.43
2018-02-17T12:26:49.149Z,8.37
2018-02-17T12:29:17.044Z,7.63
2018-02-17T12:31:44.920Z,11.20
2018-02-17T12:34:12.794Z,2.70
2018-02-17T12:36:40.638Z,3.60
2018-02-17T12:39:08.479Z,3.60
2018-02-17T12:41:36.294Z,4.43
2018-02-17T12:44:04.187Z,6.70
2018-02-17T12:46:32.016Z,7.50
2018-02-17T12:48:59.917Z,2.80
2018-02-17T12:51:27.785Z,5.03
2018-02-17T12:53:55.752Z,5.37
2018-02-17T12:56:23.649Z,3.00
2018-02-17T12:58:51.526Z,6.73
2018-02-17T13:01:19.427Z,6.53
2018-02-17T13:03:47.259Z,5.17
2018-02-17T13:06:15.175Z,2.90
2018-02-17T13:08:43.051Z,3.67
2018-02-17T13:11:10.933Z,6.30
2018-02-17T13:13:38.800Z,7.03
2018-02-17T13:16:06.713Z,6.63
2018-02-17T13:18:35.106Z,3.93
2018-02-17T13:21:03.020Z,5.40
2018-02-17T13:23:30.829Z,5.07
2018-02-17T13:25:58.681Z,4.03
2018-02-17T13:28:26.529Z,3.73
2018-02-17T13:30:54.376Z,3.13
2018-02-17T13:33:22.233Z,3.10
2018-02-17T13:35:50.088Z,4.13
2018-02-17T13:38:17.953Z,7.63
2018-02-17T13:40:45.838Z,8.10
2018-02-17T13:43:13.671Z,6.80
2018-02-17T13:45:41.529Z,4.33
2018-02-17T13:48:09.374Z,4.00
2018-02-17T13:50:37.323Z,7.93
2018-02-17T13:53:05.158Z,4.37
2018-02-17T13:55:33.072Z,7.23
2018-02-17T13:58:00.901Z,7.63
2018-02-17T14:00:28.798Z,6.73
2018-02-17T14:02:56.628Z,5.50
2018-02-17T14:05:24.536Z,7.50
2018-02-17T14:07:52.388Z,10.87
2018-02-17T14:10:20.295Z,9.67
2018-02-17T14:12:48.066Z,7.67
2018-02-17T14:15:15.924Z,7.73
2018-02-17T14:17:43.807Z,6.43
2018-02-17T14:20:11.649Z,8.47
2018-02-17T14:22:39.458Z,7.53
2018-02-17T14:25:07.369Z,7.70
2018-02-17T14:27:35.236Z,6.80
2018-02-17T14:30:03.158Z,10.63
2018-02-17T14:32:30.992Z,6.53
2018-02-17T14:34:58.829Z,6.77
2018-02-17T14:37:26.725Z,5.33
2018-02-17T14:39:54.588Z,10.60
2018-02-17T14:42:22.390Z,10.03
2018-02-17T14:44:50.228Z,13.80
2018-02-17T14:47:18.135Z,9.17
2018-02-17T14:49:46.034Z,9.83
2018-02-17T14:52:13.901Z,9.13
2018-02-17T14:54:41.814Z,8.80
2018-02-17T14:57:09.712Z,9.90
2018-02-17T14:59:37.568Z,9.73
2018-02-17T15:02:05.421Z,10.80
2018-02-17T15:04:33.263Z,7.93
2018-02-17T15:07:01.128Z,12.17
2018-02-17T15:09:29.000Z,12.33
2018-02-17T15:11:56.856Z,9.60
2018-02-17T15:14:24.645Z,14.30
2018-02-17T15:16:52.506Z,11.30
2018-02-17T15:19:20.326Z,7.07
2018-02-17T15:21:48.183Z,15.20
2018-02-17T15:24:16.039Z,11.47
2018-02-17T15:26:43.938Z,10.93
2018-02-17T15:29:11.816Z,11.07
2018-02-17T15:31:39.735Z,9.60
2018-02-17T15:34:07.565Z,9.60
2018-02-17T15:36:35.429Z,9.03
2018-02-17T15:39:03.378Z,8.13
2018-02-17T15:41:31.249Z,12.20
2018-02-17T15:44:00.037Z,14.60
2018-02-17T15:46:27.993Z,13.80
2018-02-17T15:48:55.845Z,19.57
2018-02-17T15:51:23.756Z,7.63
2018-02-17T15:53:51.608Z,9.33
2018-02-17T15:56:19.848Z,12.30
2018-02-17T15:58:47.685Z,9.60
2018-02-17T16:01:15.600Z,7.83
2018-02-17T16:03:43.424Z,8.70
2018-02-17T16:06:11.358Z,7.63
2018-02-17T16:08:39.219Z,10.80
2018-02-17T16:11:07.116Z,16.60
2018-02-17T16:13:34.947Z,12.23
2018-02-17T16:16:02.798Z,9.00
2018-02-17T16:18:30.645Z,6.40
2018-02-17T16:20:58.500Z,8.90
2018-02-17T16:23:26.403Z,11.13
2018-02-17T16:25:54.273Z,10.70
2018-02-17T16:28:22.191Z,11.30
2018-02-17T16:30:50.062Z,11.10
2018-02-17T16:33:17.943Z,12.40
2018-02-17T16:35:45.792Z,8.60
2018-02-17T16:38:13.748Z,13.07
2018-02-17T16:40:41.592Z,12.27
2018-02-17T16:43:09.522Z,15.43
2018-02-17T16:45:37.363Z,13.20
2018-02-17T16:48:05.277Z,14.27
2018-02-17T16:50:33.240Z,10.10
2018-02-17T16:53:01.064Z,7.03
2018-02-17T16:55:28.894Z,11.07
2018-02-17T16:57:56.785Z,7.90
2018-02-17T17:00:24.596Z,7.43
2018-02-17T17:02:52.496Z,13.00
2018-02-17T17:05:20.372Z,16.23
2018-02-17T17:07:48.308Z,10.13
2018-02-17T17:10:16.145Z,6.57
2018-02-17T17:12:44.025Z,9.80
2018-02-17T17:15:11.872Z,10.53
2018-02-17T17:17:39.792Z,13.50
2018-02-17T17:20:07.648Z,10.80
2018-02-17T17:22:35.561Z,6.13
2018-02-17T17:25:03.408Z,7.40
2018-02-17T17:27:31.301Z,8.90
2018-02-17T17:29:59.197Z,8.13
2018-02-17T17:32:27.196Z,11.83
2018-02-17T17:34:55.041Z,13.80
2018-02-17T17:37:22.947Z,12.87
2018-02-17T17:39:50.820Z,11.10
2018-02-17T17:42:18.709Z,8.83
2018-02-17T17:44:46.709Z,9.40
2018-02-17T17:47:14.575Z,8.70
2018-02-17T17:49:42.439Z,10.30
2018-02-17T17:52:10.320Z,14.03
2018-02-17T17:54:38.161Z,15.33
2018-02-17T17:57:06.077Z,16.60
2018-02-17T17:59:33.937Z,9.80
2018-02-17T18:02:02.274Z,10.77
2018-02-17T18:04:30.142Z,9.57
2018-02-17T18:06:58.000Z,9.67
2018-02-17T18:09:26.089Z,8.10
2018-02-17T18:11:53.900Z,18.30
2018-02-17T18:14:21.808Z,9.10
2018-02-17T18:16:49.681Z,12.63
2018-02-17T18:19:17.577Z,7.50
2018-02-17T18:21:45.407Z,6.47
2018-02-17T18:24:13.299Z,6.50
2018-02-17T18:26:41.160Z,9.83
2018-02-17T18:29:09.080Z,11.07
2018-02-17T18:31:36.951Z,11.07
2018-02-17T18:34:04.892Z,11.20
2018-02-17T18:36:32.789Z,10.57
2018-02-17T18:39:00.657Z,9.10
2018-02-17T18:41:28.527Z,14.80
2018-02-17T18:43:56.408Z,8.73
2018-02-17T18:46:24.269Z,10.20
2018-02-17T18:48:52.228Z,8.97
2018-02-17T18:51:20.108Z,10.87
2018-02-17T18:53:48.030Z,9.70
2018-02-17T18:56:15.832Z,10.70
2018-02-17T18:58:43.728Z,12.63
2018-02-17T19:01:11.587Z,7.97
2018-02-17T19:03:39.496Z,8.57
2018-02-17T19:06:07.338Z,8.73
2018-02-17T19:08:35.198Z,11.80
2018-02-17T19:11:03.060Z,10.17
2018-02-17T19:13:30.986Z,8.93
2018-02-17T19:15:58.859Z,10.00
2018-02-17T19:18:26.744Z,17.00
2018-02-17T19:20:54.571Z,8.70
2018-02-17T19:23:22.420Z,10.03
2018-02-17T19:25:50.226Z,8.00
2018-02-17T19:28:18.092Z,9.20
2018-02-17T19:30:45.925Z,13.07
2018-02-17T19:33:13.809Z,8.33
2018-02-17T19:35:41.690Z,8.03
2018-02-17T19:38:09.575Z,6.60
2018-02-17T19:40:37.388Z,7.73
2018-02-17T19:43:05.285Z,4.73
2018-02-17T19:45:33.141Z,7.93
2018-02-17T19:48:01.012Z,7.77
2018-02-17T19:50:28.920Z,7.93
2018-02-17T19:52:56.752Z,7.97
2018-02-17T19:55:24.656Z,6.33
2018-02-17T19:57:52.732Z,6.47
2018-02-17T20:00:20.635Z,7.83
2018-02-17T20:02:48.513Z,5.80
2018-02-17T20:05:16.411Z,8.20
2018-02-17T20:07:44.285Z,15.30
2018-02-17T20:10:12.779Z,5.83
2018-02-17T20:12:40.665Z,7.57
2018-02-17T20:15:08.560Z,6.63
2018-02-17T20:17:36.398Z,8.13
2018-02-17T20:20:04.335Z,7.50
2018-02-17T20:22:32.204Z,3.93
2018-02-17T20:25:00.117Z,6.90
2018-02-17T20:27:27.963Z,9.80
2018-02-17T20:29:55.849Z,7.90
2018-02-17T20:32:23.704Z,7.27
2018-02-17T20:34:51.580Z,4.70
2018-02-17T20:37:19.416Z,4.90
2018-02-17T20:39:47.337Z,5.80
2018-02-17T20:42:15.204Z,9.43
2018-02-17T20:44:43.104Z,7.60
2018-02-17T20:47:10.923Z,8.07
2018-02-17T20:49:38.869Z,8.10
2018-02-17T20:52:06.731Z,4.50
2018-02-17T20:54:34.681Z,5.90
2018-02-17T20:57:02.497Z,4.20
2018-02-17T20:59:30.359Z,6.50
2018-02-17T21:01:58.178Z,9.90
2018-02-17T21:04:26.076Z,9.90
2018-02-17T21:06:53.954Z,6.13
2018-02-17T21:09:21.779Z,7.67
2018-02-17T21:11:49.630Z,8.53
2018-02-17T21:14:17.537Z,5.83
2018-02-17T21:16:45.417Z,7.10
2018-02-17T21:19:13.309Z,6.57
2018-02-17T21:21:41.164Z,8.30
2018-02-17T21:24:09.042Z,7.67
2018-02-17T21:26:36.857Z,7.20
2018-02-17T21:29:04.785Z,11.60
2018-02-17T21:31:32.608Z,7.53
2018-02-17T21:34:00.486Z,10.97
2018-02-17T21:36:28.336Z,7.93
2018-02-17T21:38:56.157Z,8.53
2018-02-17T21:41:24.041Z,7.30
2018-02-17T21:43:51.877Z,8.77
2018-02-17T21:46:19.774Z,8.33
2018-02-17T21:48:47.655Z,11.60
2018-02-17T21:51:15.615Z,6.50
2018-02-17T21:53:43.459Z,5.90
2018-02-17T21:56:11.383Z,7.43
2018-02-17T21:58:39.235Z,5.83
2018-02-17T22:01:07.084Z,7.17
2018-02-17T22:03:34.924Z,8.73
2018-02-17T22:06:02.824Z,11.20
2018-02-17T22:08:30.693Z,9.43
2018-02-17T22:10:58.583Z,8.63
2018-02-17T22:13:26.437Z,10.27
2018-02-17T22:15:54.356Z,6.60
2018-02-17T22:18:22.230Z,7.60
2018-02-17T22:20:50.021Z,11.47
2018-02-17T22:23:17.882Z,9.43
2018-02-17T22:25:45.792Z,7.63
2018-02-17T22:28:13.649Z,10.20
2018-02-17T22:30:41.537Z,8.07
2018-02-17T22:33:09.392Z,7.23
2018-02-17T22:35:37.276Z,7.27
2018-02-17T22:38:05.086Z,6.67
2018-02-17T22:40:32.976Z,7.37
2018-02-17T22:43:00.812Z,8.77
2018-02-17T22:45:28.668Z,8.73
2018-02-17T22:47:56.483Z,6.33
2018-02-17T22:50:24.386Z,7.17
2018-02-17T22:52:52.247Z,7.90
2018-02-17T22:55:20.105Z,10.20
2018-02-17T22:57:47.945Z,8.10
2018-02-17T23:00:33.585Z,10.90
2018-02-17T23:03:01.433Z,8.27
2018-02-17T23:05:29.320Z,13.00
2018-02-17T23:07:57.136Z,6.70
2018-02-17T23:10:25.066Z,8.77
2018-02-17T23:12:52.933Z,8.77
2018-02-17T23:15:20.838Z,7.67
2018-02-17T23:17:48.643Z,7.30
2018-02-17T23:20:16.483Z,6.47
2018-02-17T23:22:44.331Z,10.03
2018-02-17T23:25:12.241Z,7.10
2018-02-17T23:27:40.115Z,10.87
2018-02-17T23:30:07.969Z,8.97
2018-02-17T23:32:35.776Z,10.60
2018-02-17T23:35:03.606Z,6.00
2018-02-17T23:37:31.480Z,10.00
2018-02-17T23:39:59.303Z,6.80
2018-02-17T23:42:27.143Z,8.80
2018-02-17T23:44:54.980Z,13.30
2018-02-17T23:47:22.838Z,13.03
2018-02-17T23:49:50.673Z,11.67
2018-02-17T23:52:18.548Z,7.73
2018-02-17T23:54:46.359Z,16.23
2018-02-17T23:57:14.204Z,10.80
2018-02-17T23:59:42.013Z,7.97
